Time;durP1;ratioP1;P1;durP2;ratioP2;P2;SDS_P1;SDS_P2;PMS_P1;PMS_P2;Temp;Humidity;BMP_temperature;BMP_pressure;BME280_temperature;BME280_humidity;BME280_pressure;Samples;Min_cycle;Max_cycle;Signal;HPM_P1;HPM_P2
2022/10/15 00:01:36;;;;;;;3.00;0.93;;;;;;;;;;4921964;29;20040;-88
2022/10/15 00:04:03;;;;;;;2.08;1.17;;;;;;;;;;4921677;29;20047;-88
2022/10/15 00:06:28;;;;;;;2.42;0.90;;;;;;;;;;4936605;29;20024;-87
2022/10/15 00:08:55;;;;;;;2.10;0.90;;;;;;;;;;4920557;29;20040;-88
2022/10/15 00:11:23;;;;;;;1.00;0.90;;;;;;;;;;4921514;29;20032;-88
2022/10/15 00:13:51;;;;;;;2.35;0.90;;;;;;;;;;4920656;29;20043;-87
2022/10/15 00:16:19;;;;;;;1.55;0.90;;;;;;;;;;4920781;29;20048;-88
2022/10/15 00:18:45;;;;;;;2.15;1.00;;;;;;;;;;4918617;29;20047;-88
2022/10/15 00:21:13;;;;;;;1.20;1.05;;;;;;;;;;4918642;29;20028;-88
2022/10/15 00:23:40;;;;;;;1.10;1.00;;;;;;;;;;4935698;29;20111;-88
2022/10/15 00:26:08;;;;;;;3.00;1.13;;;;;;;;;;4920480;29;20028;-88
2022/10/15 00:28:34;;;;;;;1.73;1.08;;;;;;;;;;4920191;29;20080;-88
2022/10/15 00:31:19;;;;;;;2.88;0.98;;;;;;;;;;4920084;29;20040;-88
2022/10/15 00:33:48;;;;;;;3.40;1.20;;;;;;;;;;4919345;29;20036;-88
2022/10/15 00:36:17;;;;;;;2.08;1.10;;;;;;;;;;4934874;29;20442;-88
2022/10/15 00:38:42;;;;;;;1.80;1.00;;;;;;;;;;4918311;29;20505;-88
2022/10/15 00:41:13;;;;;;;2.53;1.15;;;;;;;;;;4919095;29;20043;-88
2022/10/15 00:43:46;;;;;;;2.90;1.13;;;;;;;;;;4919697;29;20048;-87
2022/10/15 00:46:35;;;;;;;6.60;1.08;;;;;;;;;;4919540;29;20127;-88
2022/10/15 00:49:15;;;;;;;1.90;1.02;;;;;;;;;;4919496;29;20090;-88
2022/10/15 00:51:48;;;;;;;1.73;1.20;;;;;;;;;;4920339;29;20106;-88
2022/10/15 00:54:14;;;;;;;2.00;1.10;;;;;;;;;;4935050;29;20509;-88
2022/10/15 00:56:43;;;;;;;1.23;1.10;;;;;;;;;;4919655;29;20032;-88
2022/10/15 00:59:11;;;;;;;1.40;1.10;;;;;;;;;;4920013;29;20043;-88
2022/10/15 01:01:37;;;;;;;2.10;1.10;;;;;;;;;;4920207;29;20489;-88
2022/10/15 01:04:04;;;;;;;1.60;1.20;;;;;;;;;;4919492;29;20036;-88
2022/10/15 01:06:30;;;;;;;1.90;1.13;;;;;;;;;;4919643;29;20063;-88
2022/10/15 01:08:56;;;;;;;2.13;1.10;;;;;;;;;;4919962;29;20040;-88
2022/10/15 01:11:39;;;;;;;2.35;1.10;;;;;;;;;;4919784;29;20171;-88
2022/10/15 01:14:29;;;;;;;2.65;1.15;;;;;;;;;;4919499;29;20123;-88
2022/10/15 01:17:09;;;;;;;2.13;1.10;;;;;;;;;;4923776;29;20051;-88
2022/10/15 01:20:05;;;;;;;3.03;1.23;;;;;;;;;;4940021;29;20032;-88
2022/10/15 01:22:46;;;;;;;1.80;1.23;;;;;;;;;;4924514;29;20187;-87
2022/10/15 01:25:47;;;;;;;2.70;1.20;;;;;;;;;;4924342;29;20044;-88
2022/10/15 01:28:25;;;;;;;1.83;1.30;;;;;;;;;;4919354;29;20048;-88
2022/10/15 01:31:01;;;;;;;2.97;1.10;;;;;;;;;;4924247;29;20409;-88
2022/10/15 01:33:34;;;;;;;1.58;1.20;;;;;;;;;;4924933;29;20040;-88
2022/10/15 01:36:17;;;;;;;3.38;1.15;;;;;;;;;;4923817;29;20115;-88
2022/10/15 01:39:11;;;;;;;1.92;1.10;;;;;;;;;;4924642;29;20028;-88
2022/10/15 01:41:43;;;;;;;2.28;1.13;;;;;;;;;;4924842;29;20032;-88
2022/10/15 01:44:19;;;;;;;3.30;1.20;;;;;;;;;;4923159;29;20040;-88
2022/10/15 01:47:15;;;;;;;1.70;1.10;;;;;;;;;;4923987;29;20028;-88
2022/10/15 01:49:42;;;;;;;;;;;;;;;;;;4940947;29;20421;-87
2022/10/15 01:52:22;;;;;;;2.47;1.08;;;;;;;;;;4924377;29;19914;-88
2022/10/15 01:54:51;;;;;;;2.13;1.13;;;;;;;;;;4925655;29;20051;-88
2022/10/15 01:57:19;;;;;;;1.42;1.00;;;;;;;;;;4923714;29;20091;-88
2022/10/15 01:59:45;;;;;;;3.25;1.20;;;;;;;;;;4923092;29;20074;-88
2022/10/15 02:02:12;;;;;;;1.75;1.20;;;;;;;;;;4923229;29;20036;-88
2022/10/15 02:04:38;;;;;;;2.45;1.20;;;;;;;;;;4924412;29;20036;-88
2022/10/15 02:07:38;;;;;;;4.05;1.27;;;;;;;;;;4925341;29;20043;-88
2022/10/15 02:10:15;;;;;;;2.10;0.95;;;;;;;;;;4925015;29;20489;-88
2022/10/15 02:13:01;;;;;;;2.65;1.10;;;;;;;;;;4924136;29;20453;-88
2022/10/15 02:15:51;;;;;;;2.72;1.08;;;;;;;;;;4923506;29;20071;-87
2022/10/15 02:18:34;;;;;;;1.15;1.00;;;;;;;;;;4925272;29;20525;-88
2022/10/15 02:21:18;;;;;;;1.83;1.20;;;;;;;;;;4925055;29;20032;-88
2022/10/15 02:23:47;;;;;;;3.25;1.20;;;;;;;;;;4923880;29;20047;-88
2022/10/15 02:26:14;;;;;;;2.25;1.30;;;;;;;;;;4923933;29;20032;-88
2022/10/15 02:28:43;;;;;;;1.20;0.98;;;;;;;;;;4922707;29;20044;-88
2022/10/15 02:31:11;;;;;;;2.10;1.10;;;;;;;;;;4923095;29;20140;-87
2022/10/15 02:33:37;;;;;;;1.45;1.15;;;;;;;;;;4924328;29;20038;-88
2022/10/15 02:36:03;;;;;;;1.73;1.08;;;;;;;;;;4923344;29;20047;-88
2022/10/15 02:38:33;;;;;;;2.13;1.15;;;;;;;;;;4923833;29;20122;-87
2022/10/15 02:41:00;;;;;;;1.50;1.20;;;;;;;;;;4923549;29;20493;-88
2022/10/15 02:43:26;;;;;;;2.15;1.17;;;;;;;;;;4923564;29;20032;-88
2022/10/15 02:45:51;;;;;;;2.33;1.10;;;;;;;;;;4922842;29;20095;-88
2022/10/15 02:48:19;;;;;;;1.75;1.10;;;;;;;;;;4922438;29;20039;-88
2022/10/15 02:50:46;;;;;;;1.27;1.00;;;;;;;;;;4922488;29;20036;-87
2022/10/15 02:53:12;;;;;;;2.75;1.20;;;;;;;;;;4922677;29;20544;-88
2022/10/15 02:55:40;;;;;;;2.63;1.10;;;;;;;;;;4922802;29;20036;-88
2022/10/15 02:58:05;;;;;;;1.52;1.10;;;;;;;;;;4923896;29;20168;-87
2022/10/15 03:00:31;;;;;;;1.42;1.10;;;;;;;;;;4922996;29;20032;-88
2022/10/15 03:02:56;;;;;;;1.73;1.10;;;;;;;;;;4938592;29;20104;-87
2022/10/15 03:05:22;;;;;;;2.17;1.20;;;;;;;;;;4923121;29;20528;-88
2022/10/15 03:07:48;;;;;;;2.22;1.02;;;;;;;;;;4922966;29;20028;-88
2022/10/15 03:10:14;;;;;;;1.98;1.20;;;;;;;;;;4938484;29;20032;-88
2022/10/15 03:12:39;;;;;;;3.08;1.00;;;;;;;;;;4922955;29;20047;-88
2022/10/15 03:15:05;;;;;;;2.30;1.20;;;;;;;;;;4938169;29;20040;-88
2022/10/15 03:17:31;;;;;;;1.42;1.00;;;;;;;;;;4923229;29;20526;-88
2022/10/15 03:19:56;;;;;;;1.88;1.10;;;;;;;;;;4922388;29;20028;-88
2022/10/15 03:22:22;;;;;;;1.77;1.20;;;;;;;;;;4923299;29;20464;-87
2022/10/15 03:24:51;;;;;;;2.45;1.33;;;;;;;;;;4938246;29;20123;-87
2022/10/15 03:27:22;;;;;;;2.78;0.90;;;;;;;;;;4922919;29;20068;-87
2022/10/15 03:29:47;;;;;;;2.22;1.30;;;;;;;;;;4939267;29;20043;-88
2022/10/15 03:32:13;;;;;;;2.75;1.23;;;;;;;;;;4938493;29;20040;-87
2022/10/15 03:34:38;;;;;;;2.47;1.02;;;;;;;;;;4924573;29;20036;-88
2022/10/15 03:37:05;;;;;;;4.90;1.30;;;;;;;;;;4923867;29;20032;-87
2022/10/15 03:39:31;;;;;;;1.60;1.05;;;;;;;;;;4923194;29;20036;-88
2022/10/15 03:42:00;;;;;;;1.88;1.20;;;;;;;;;;4923735;29;20035;-88
2022/10/15 03:44:33;;;;;;;1.33;1.13;;;;;;;;;;4923031;29;20043;-88
2022/10/15 03:47:08;;;;;;;2.05;1.10;;;;;;;;;;4923736;29;20037;-87
2022/10/15 03:49:47;;;;;;;1.02;0.93;;;;;;;;;;4924371;29;20087;-87
2022/10/15 03:52:13;;;;;;;1.80;1.30;;;;;;;;;;4923671;29;20425;-87
2022/10/15 03:54:40;;;;;;;1.58;1.17;;;;;;;;;;4923121;29;20044;-87
2022/10/15 03:57:06;;;;;;;1.20;1.10;;;;;;;;;;4938978;29;20409;-88
2022/10/15 03:59:37;;;;;;;1.58;1.00;;;;;;;;;;4923154;29;20039;-87
2022/10/15 04:02:04;;;;;;;2.38;1.20;;;;;;;;;;4938828;29;20044;-87
2022/10/15 04:04:31;;;;;;;1.10;1.00;;;;;;;;;;4922605;29;20074;-87
2022/10/15 04:06:57;;;;;;;1.50;1.02;;;;;;;;;;4924307;29;20059;-87
2022/10/15 04:09:23;;;;;;;1.42;1.10;;;;;;;;;;4938620;29;20517;-87
2022/10/15 04:11:48;;;;;;;1.67;1.00;;;;;;;;;;4921653;29;20036;-88
2022/10/15 04:14:14;;;;;;;1.00;0.90;;;;;;;;;;4922250;29;20043;-87
2022/10/15 04:16:40;;;;;;;3.85;0.98;;;;;;;;;;4923368;29;20036;-88
2022/10/15 04:19:19;;;;;;;2.45;1.17;;;;;;;;;;4922050;29;20036;-87
2022/10/15 04:21:54;;;;;;;1.10;1.00;;;;;;;;;;4922820;29;20032;-87
2022/10/15 04:24:29;;;;;;;1.60;1.20;;;;;;;;;;4938060;29;20502;-88
2022/10/15 04:26:55;;;;;;;1.70;0.90;;;;;;;;;;4922516;29;20087;-87
2022/10/15 04:29:21;;;;;;;3.22;1.20;;;;;;;;;;4938396;29;20032;-87
2022/10/15 04:31:47;;;;;;;1.30;0.90;;;;;;;;;;4921505;29;20035;-87
2022/10/15 04:34:12;;;;;;;1.95;1.15;;;;;;;;;;4921827;29;20040;-87
2022/10/15 04:36:38;;;;;;;1.83;1.15;;;;;;;;;;4921873;29;20039;-87
2022/10/15 04:39:17;;;;;;;3.03;1.30;;;;;;;;;;4922085;29;20040;-88
2022/10/15 04:41:43;;;;;;;1.70;1.20;;;;;;;;;;4921546;29;20481;-87
2022/10/15 04:44:12;;;;;;;2.60;2.00;;;;;;;;;;4922293;29;20484;-87
2022/10/15 04:46:38;;;;;;;2.08;1.63;;;;;;;;;;4922301;29;20042;-88
2022/10/15 04:49:29;;;;;;;2.13;1.50;;;;;;;;;;4921505;29;20044;-87
2022/10/15 04:51:55;;;;;;;1.25;1.10;;;;;;;;;;4922402;29;20102;-87
2022/10/15 04:54:27;;;;;;;2.17;1.60;;;;;;;;;;4922234;29;20063;-88
2022/10/15 04:56:57;;;;;;;3.33;1.60;;;;;;;;;;4937641;29;20032;-87
2022/10/15 04:59:23;;;;;;;4.43;1.40;;;;;;;;;;4937852;29;20028;-87
2022/10/15 05:02:15;;;;;;;2.75;1.00;;;;;;;;;;4915019;29;20108;-87
2022/10/15 05:04:42;;;;;;;1.70;1.00;;;;;;;;;;4922188;29;20409;-87
2022/10/15 05:07:07;;;;;;;1.58;0.90;;;;;;;;;;4922189;29;20082;-87
2022/10/15 05:09:33;;;;;;;1.85;1.08;;;;;;;;;;4921393;29;20040;-87
2022/10/15 05:11:59;;;;;;;1.70;1.10;;;;;;;;;;4920399;29;20103;-88
2022/10/15 05:14:27;;;;;;;1.10;0.90;;;;;;;;;;4921457;29;20040;-88
2022/10/15 05:17:12;;;;;;;1.20;1.05;;;;;;;;;;4921491;29;20044;-88
2022/10/15 05:19:39;;;;;;;1.40;1.00;;;;;;;;;;4920589;29;20039;-88
2022/10/15 05:22:08;;;;;;;2.22;1.33;;;;;;;;;;4921341;29;20036;-87
2022/10/15 05:24:40;;;;;;;1.13;0.90;;;;;;;;;;4921041;29;20036;-88
2022/10/15 05:27:38;;;;;;;1.30;0.90;;;;;;;;;;4919054;29;20044;-88
2022/10/15 05:30:05;;;;;;;1.20;1.10;;;;;;;;;;4921119;29;20028;-88
2022/10/15 05:32:36;;;;;;;4.72;2.30;;;;;;;;;;4920615;29;20544;-88
2022/10/15 05:35:02;;;;;;;4.60;2.20;;;;;;;;;;4937227;29;20738;-88
2022/10/15 05:37:45;;;;;;;1.65;1.10;;;;;;;;;;4920702;29;20043;-87
2022/10/15 05:40:12;;;;;;;1.00;0.88;;;;;;;;;;4921298;29;20084;-88
2022/10/15 05:42:38;;;;;;;3.08;1.40;;;;;;;;;;4921446;29;20031;-88
2022/10/15 05:45:05;;;;;;;1.63;1.10;;;;;;;;;;4936372;29;20045;-88
2022/10/15 05:47:31;;;;;;;1.70;1.30;;;;;;;;;;4920119;29;20036;-87
2022/10/15 05:50:11;;;;;;;1.50;1.23;;;;;;;;;;4934006;29;20039;-87
2022/10/15 05:52:41;;;;;;;2.13;1.15;;;;;;;;;;4919786;29;20113;-87
2022/10/15 05:55:32;;;;;;;1.90;1.00;;;;;;;;;;4920949;29;20060;-88
2022/10/15 05:58:02;;;;;;;1.48;1.10;;;;;;;;;;4919779;29;20036;-88
2022/10/15 06:00:28;;;;;;;1.80;1.27;;;;;;;;;;4919151;29;20032;-88
2022/10/15 06:02:53;;;;;;;1.75;1.20;;;;;;;;;;4938984;29;20047;-88
2022/10/15 06:05:19;;;;;;;3.17;1.30;;;;;;;;;;4940031;29;20073;-87
2022/10/15 06:07:45;;;;;;;1.20;1.10;;;;;;;;;;4925919;29;20048;-87
2022/10/15 06:10:10;;;;;;;2.92;1.25;;;;;;;;;;4925708;29;20036;-87
2022/10/15 06:12:38;;;;;;;2.10;1.30;;;;;;;;;;4924979;29;20052;-87
2022/10/15 06:15:04;;;;;;;1.70;1.25;;;;;;;;;;4920542;29;20047;-86
2022/10/15 06:17:29;;;;;;;3.53;2.00;;;;;;;;;;4918852;29;20123;-86
2022/10/15 06:19:55;;;;;;;4.05;1.95;;;;;;;;;;4919471;29;20569;-87
2022/10/15 06:22:21;;;;;;;1.48;1.10;;;;;;;;;;4918846;29;20063;-87
2022/10/15 06:24:46;;;;;;;1.70;1.48;;;;;;;;;;4921254;29;20397;-87
2022/10/15 06:27:12;;;;;;;2.95;1.80;;;;;;;;;;4934763;29;20102;-87
2022/10/15 06:29:38;;;;;;;3.33;2.38;;;;;;;;;;4919534;29;20036;-86
2022/10/15 06:32:07;;;;;;;2.22;1.48;;;;;;;;;;4921567;29;20056;-87
2022/10/15 06:34:33;;;;;;;4.07;1.70;;;;;;;;;;4924442;29;20039;-86
2022/10/15 06:36:58;;;;;;;4.78;3.00;;;;;;;;;;4922087;29;20040;-87
2022/10/15 06:39:24;;;;;;;2.55;1.20;;;;;;;;;;4923349;29;20096;-86
2022/10/15 06:41:49;;;;;;;3.38;2.35;;;;;;;;;;4937208;29;20055;-86
2022/10/15 06:44:14;;;;;;;2.47;1.50;;;;;;;;;;4921954;29;20024;-87
2022/10/15 06:46:40;;;;;;;1.92;1.45;;;;;;;;;;4923864;29;20770;-88
2022/10/15 06:49:05;;;;;;;3.10;2.40;;;;;;;;;;4937478;29;20039;-88
2022/10/15 06:51:32;;;;;;;1.90;1.42;;;;;;;;;;4921171;29;20024;-87
2022/10/15 06:53:58;;;;;;;2.20;1.42;;;;;;;;;;4920967;29;20401;-86
2022/10/15 06:56:23;;;;;;;1.65;1.23;;;;;;;;;;4919550;29;20497;-87
2022/10/15 06:58:48;;;;;;;3.75;1.23;;;;;;;;;;4923574;29;20111;-88
2022/10/15 07:01:14;;;;;;;3.42;1.45;;;;;;;;;;4932520;29;20042;-87
2022/10/15 07:03:40;;;;;;;2.97;1.40;;;;;;;;;;4904606;29;20414;-87
2022/10/15 07:06:07;;;;;;;1.88;1.40;;;;;;;;;;4904258;29;20032;-87
2022/10/15 07:08:34;;;;;;;2.50;1.50;;;;;;;;;;4904179;29;20040;-87
2022/10/15 07:11:04;;;;;;;6.00;2.80;;;;;;;;;;4902709;29;20040;-87
2022/10/15 07:13:30;;;;;;;1.70;1.30;;;;;;;;;;4901346;29;20033;-87
2022/10/15 07:15:56;;;;;;;1.52;1.00;;;;;;;;;;4902033;29;20050;-87
2022/10/15 07:18:22;;;;;;;1.95;1.30;;;;;;;;;;4901624;29;20115;-88
2022/10/15 07:20:47;;;;;;;1.88;1.48;;;;;;;;;;4899988;29;20058;-87
2022/10/15 07:23:13;;;;;;;2.42;1.40;;;;;;;;;;4900960;29;20040;-88
2022/10/15 07:25:38;;;;;;;4.30;1.48;;;;;;;;;;4884563;29;20024;-88
2022/10/15 07:28:04;;;;;;;3.85;2.15;;;;;;;;;;4901098;29;20536;-87
2022/10/15 07:30:31;;;;;;;2.42;1.77;;;;;;;;;;4902178;29;20513;-86
2022/10/15 07:32:59;;;;;;;5.28;2.20;;;;;;;;;;4899273;29;20406;-87
2022/10/15 07:35:25;;;;;;;4.30;1.88;;;;;;;;;;4901973;29;20051;-88
2022/10/15 07:37:51;;;;;;;7.00;2.20;;;;;;;;;;4902425;29;20123;-87
2022/10/15 07:40:17;;;;;;;2.70;1.80;;;;;;;;;;4902920;29;20438;-86
2022/10/15 07:42:42;;;;;;;5.25;1.95;;;;;;;;;;4904274;29;20049;-87
2022/10/15 07:45:08;;;;;;;2.38;1.50;;;;;;;;;;4904249;29;20402;-87
2022/10/15 07:47:34;;;;;;;2.15;1.40;;;;;;;;;;4902912;29;20040;-87
2022/10/15 07:49:59;;;;;;;2.00;1.30;;;;;;;;;;4904814;29;20047;-87
2022/10/15 07:52:25;;;;;;;6.03;2.47;;;;;;;;;;4904901;29;20497;-86
2022/10/15 07:54:50;;;;;;;2.42;1.40;;;;;;;;;;4904810;29;20640;-86
2022/10/15 07:57:18;;;;;;;2.88;1.65;;;;;;;;;;4913108;29;20040;-86
2022/10/15 07:59:43;;;;;;;7.35;2.35;;;;;;;;;;4920717;29;20046;-87
2022/10/15 08:02:16;;;;;;;7.90;2.75;;;;;;;;;;4922922;29;20043;-86
2022/10/15 08:04:41;;;;;;;13.82;3.83;;;;;;;;;;4922218;29;20103;-86
2022/10/15 08:07:07;;;;;;;11.13;3.63;;;;;;;;;;4921971;29;20067;-86
2022/10/15 08:09:32;;;;;;;8.32;3.03;;;;;;;;;;4918690;29;20433;-86
2022/10/15 08:11:58;;;;;;;2.22;1.70;;;;;;;;;;4919243;29;20070;-87
2022/10/15 08:14:24;;;;;;;8.02;2.63;;;;;;;;;;4919484;29;20036;-87
2022/10/15 08:16:50;;;;;;;4.07;1.80;;;;;;;;;;4919372;29;20039;-86
2022/10/15 08:19:16;;;;;;;3.85;1.98;;;;;;;;;;4902404;29;20044;-86
2022/10/15 08:21:43;;;;;;;6.78;3.88;;;;;;;;;;4918075;29;20028;-86
2022/10/15 08:24:09;;;;;;;5.03;2.95;;;;;;;;;;4932724;29;20044;-86
2022/10/15 08:26:34;;;;;;;5.63;2.50;;;;;;;;;;4918647;29;20059;-87
2022/10/15 08:29:00;;;;;;;2.70;1.77;;;;;;;;;;4917944;29;20032;-86
2022/10/15 08:31:25;;;;;;;2.63;1.80;;;;;;;;;;4920238;29;20489;-87
2022/10/15 08:33:51;;;;;;;4.25;2.42;;;;;;;;;;4919362;29;20052;-86
2022/10/15 08:36:17;;;;;;;4.35;2.20;;;;;;;;;;4919350;29;20091;-87
2022/10/15 08:38:43;;;;;;;2.70;1.95;;;;;;;;;;4920091;29;20051;-85
2022/10/15 08:41:52;;;;;;;4.30;2.22;;;;;;;;;;4918614;29;20051;-87
2022/10/15 08:44:21;;;;;;;2.72;1.67;;;;;;;;;;4918122;29;20056;-86
2022/10/15 08:46:51;;;;;;;2.35;1.60;;;;;;;;;;4919187;29;20130;-86
2022/10/15 08:49:33;;;;;;;5.50;2.58;;;;;;;;;;4918591;29;20067;-86
2022/10/15 08:52:13;;;;;;;8.15;3.17;;;;;;;;;;4933934;29;20040;-86
2022/10/15 08:54:39;;;;;;;2.58;1.60;;;;;;;;;;4920345;29;20048;-87
2022/10/15 08:57:16;;;;;;;5.32;3.22;;;;;;;;;;4919213;29;20103;-86
2022/10/15 08:59:53;;;;;;;3.70;2.22;;;;;;;;;;4933018;29;20036;-87
2022/10/15 09:02:32;;;;;;;2.80;1.80;;;;;;;;;;4920408;29;20041;-87
2022/10/15 09:05:01;;;;;;;3.92;1.80;;;;;;;;;;4922259;29;20040;-87
2022/10/15 09:07:27;;;;;;;3.15;1.80;;;;;;;;;;4920002;29;20036;-88
2022/10/15 09:10:01;;;;;;;3.25;1.30;;;;;;;;;;4921651;29;20202;-87
2022/10/15 09:12:42;;;;;;;1.63;1.33;;;;;;;;;;4920715;29;20040;-87
2022/10/15 09:15:17;;;;;;;2.85;1.33;;;;;;;;;;4921302;29;20052;-87
2022/10/15 09:17:47;;;;;;;2.55;1.50;;;;;;;;;;4935358;29;20051;-87
2022/10/15 09:20:17;;;;;;;2.05;1.40;;;;;;;;;;4921214;29;20038;-87
2022/10/15 09:22:50;;;;;;;2.00;1.10;;;;;;;;;;4921614;29;20446;-88
2022/10/15 09:25:19;;;;;;;2.22;1.30;;;;;;;;;;4935822;29;20040;-87
2022/10/15 09:27:50;;;;;;;3.05;1.50;;;;;;;;;;4922395;29;20059;-87
2022/10/15 09:30:33;;;;;;;2.20;1.50;;;;;;;;;;4921354;29;20075;-87
2022/10/15 09:33:10;;;;;;;9.35;1.88;;;;;;;;;;4921413;29;20461;-87
2022/10/15 09:35:39;;;;;;;3.67;1.67;;;;;;;;;;4921083;29;20040;-87
2022/10/15 09:38:23;;;;;;;1.33;1.00;;;;;;;;;;4939210;29;20054;-87
2022/10/15 09:41:04;;;;;;;3.33;1.25;;;;;;;;;;4923877;29;20123;-87
2022/10/15 09:43:36;;;;;;;2.17;1.45;;;;;;;;;;4924507;29;20099;-88
2022/10/15 09:46:03;;;;;;;1.40;1.10;;;;;;;;;;4923847;29;20036;-87
2022/10/15 09:48:32;;;;;;;2.13;1.30;;;;;;;;;;4923251;29;20406;-88
2022/10/15 09:51:04;;;;;;;2.25;1.00;;;;;;;;;;4955203;23;20417;-90
2022/10/15 09:53:38;;;;;;;2.00;1.13;;;;;;;;;;4930173;29;20047;-90
2022/10/15 09:56:25;;;;;;;3.38;1.55;;;;;;;;;;4930501;29;20047;-88
2022/10/15 09:58:54;;;;;;;2.55;1.50;;;;;;;;;;4948850;29;20062;-89
2022/10/15 10:01:20;;;;;;;5.63;1.92;;;;;;;;;;4946029;29;20044;-88
2022/10/15 10:03:51;;;;;;;2.83;2.00;;;;;;;;;;4939787;29;20032;-90
2022/10/15 10:06:17;;;;;;;2.92;2.10;;;;;;;;;;4937149;29;20090;-90
2022/10/15 10:08:58;;;;;;;4.43;2.08;;;;;;;;;;4938420;29;20039;-90
2022/10/15 10:11:25;;;;;;;3.67;1.45;;;;;;;;;;4921240;29;20071;-90
2022/10/15 10:13:55;;;;;;;3.03;1.60;;;;;;;;;;4937814;29;20032;-91
2022/10/15 10:16:21;;;;;;;1.83;1.20;;;;;;;;;;4937157;29;20039;-90
2022/10/15 10:19:14;;;;;;;2.10;1.00;;;;;;;;;;4937069;29;20094;-90
2022/10/15 10:21:41;;;;;;;3.05;2.03;;;;;;;;;;4936743;29;20500;-91
2022/10/15 10:24:19;;;;;;;1.45;0.93;;;;;;;;;;4920966;29;20040;-90
2022/10/15 10:26:46;;;;;;;2.95;1.30;;;;;;;;;;4921666;29;20547;-90
2022/10/15 10:29:19;;;;;;;2.05;1.13;;;;;;;;;;4936722;29;20085;-88
2022/10/15 10:31:49;;;;;;;3.28;1.67;;;;;;;;;;4937472;29;20035;-89
2022/10/15 10:34:30;;;;;;;5.93;3.80;;;;;;;;;;4937769;29;20050;-89
2022/10/15 10:37:01;;;;;;;2.60;0.70;;;;;;;;;;4944106;29;20112;-88
2022/10/15 10:39:33;;;;;;;2.60;1.80;;;;;;;;;;4922389;29;20036;-89
2022/10/15 10:41:59;;;;;;;1.80;1.30;;;;;;;;;;4936650;29;20040;-88
2022/10/15 10:44:26;;;;;;;3.13;1.50;;;;;;;;;;4936523;29;20039;-88
2022/10/15 10:47:07;;;;;;;3.97;1.63;;;;;;;;;;4937629;29;20040;-87
2022/10/15 10:49:59;;;;;;;3.65;2.10;;;;;;;;;;4936683;29;20520;-87
2022/10/15 10:52:29;;;;;;;2.67;1.27;;;;;;;;;;4935984;29;20063;-88
2022/10/15 10:55:12;;;;;;;2.13;1.50;;;;;;;;;;4949281;29;20063;-86
2022/10/15 10:57:50;;;;;;;4.05;1.30;;;;;;;;;;4921251;29;20038;-88
2022/10/15 11:00:39;;;;;;;1.42;1.08;;;;;;;;;;4937532;29;20036;-89
2022/10/15 11:03:13;;;;;;;1.30;1.10;;;;;;;;;;4936616;29;20187;-89
2022/10/15 11:05:39;;;;;;;2.92;1.80;;;;;;;;;;4955460;29;20034;-89
2022/10/15 11:08:16;;;;;;;6.57;2.60;;;;;;;;;;4941076;29;20035;-88
2022/10/15 11:11:22;;;;;;;4.35;2.35;;;;;;;;;;4940235;29;20055;-89
2022/10/15 11:14:03;;;;;;;1.77;1.20;;;;;;;;;;4926862;29;20036;-88
2022/10/15 11:17:08;;;;;;;3.30;1.38;;;;;;;;;;4936825;29;20063;-88
2022/10/15 11:19:40;;;;;;;1.60;1.23;;;;;;;;;;4951034;29;20050;-89
2022/10/15 11:22:21;;;;;;;3.53;1.30;;;;;;;;;;4937377;29;20038;-91
2022/10/15 11:25:14;;;;;;;2.15;1.58;;;;;;;;;;4937246;29;20430;-89
2022/10/15 11:28:04;;;;;;;3.60;1.35;;;;;;;;;;4935840;29;20032;-90
2022/10/15 11:31:07;;;;;;;1.75;1.00;;;;;;;;;;4936443;29;20035;-90
2022/10/15 11:33:44;;;;;;;2.53;2.13;;;;;;;;;;4937566;29;20036;-90
2022/10/15 11:36:34;;;;;;;2.28;1.30;;;;;;;;;;4919909;29;20094;-88
2022/10/15 11:39:32;;;;;;;1.02;0.80;;;;;;;;;;4954816;29;20090;-90
2022/10/15 11:42:15;;;;;;;1.60;1.00;;;;;;;;;;4925687;29;20139;-91
2022/10/15 11:44:58;;;;;;;1.80;1.20;;;;;;;;;;4927125;29;20039;-91
2022/10/15 11:47:42;;;;;;;2.37;1.00;;;;;;;;;;4941666;29;20047;-91
2022/10/15 11:50:29;;;;;;;;;;;;;;;;;;4922754;29;20047;-91
2022/10/15 11:53:20;;;;;;;1.75;0.90;;;;;;;;;;4939080;29;19914;-91
2022/10/15 11:55:54;;;;;;;1.10;1.00;;;;;;;;;;4921280;29;20115;-91
2022/10/15 11:58:31;;;;;;;1.73;1.00;;;;;;;;;;4938248;29;20031;-91
2022/10/15 12:01:27;;;;;;;1.90;1.00;;;;;;;;;;4939205;29;20043;-91
2022/10/15 12:04:02;;;;;;;1.60;1.05;;;;;;;;;;4935226;29;20102;-91
2022/10/15 12:06:30;;;;;;;;;;;;;;;;;;4938600;29;20043;-92
2022/10/15 12:08:56;;;;;;;1.50;1.20;;;;;;;;;;4937905;29;19922;-92
2022/10/15 12:11:32;;;;;;;1.35;1.10;;;;;;;;;;4922150;29;20030;-91
2022/10/15 12:14:00;;;;;;;2.17;1.10;;;;;;;;;;4919825;29;20051;-90
2022/10/15 12:16:39;;;;;;;1.08;0.90;;;;;;;;;;4951301;29;20050;-90
2022/10/15 12:19:27;;;;;;;1.33;1.10;;;;;;;;;;4935735;29;20046;-90
2022/10/15 12:21:53;;;;;;;1.23;0.82;;;;;;;;;;4950668;29;20035;-90
2022/10/15 12:24:37;;;;;;;5.00;1.02;;;;;;;;;;4935232;29;20399;-90
2022/10/15 12:27:18;;;;;;;1.98;0.90;;;;;;;;;;4936531;29;20507;-91
2022/10/15 12:30:10;;;;;;;2.17;0.93;;;;;;;;;;4935605;29;20487;-90
2022/10/15 12:32:45;;;;;;;2.60;0.90;;;;;;;;;;4951063;29;20043;-90
2022/10/15 12:35:13;;;;;;;1.48;0.90;;;;;;;;;;4934333;29;20091;-91
2022/10/15 12:37:40;;;;;;;1.30;0.80;;;;;;;;;;4919411;29;20054;-91
2022/10/15 12:40:27;;;;;;;0.73;0.70;;;;;;;;;;4934495;29;20050;-91
2022/10/15 12:43:01;;;;;;;1.25;0.93;;;;;;;;;;4934911;29;20050;-91
2022/10/15 12:45:36;;;;;;;1.50;0.90;;;;;;;;;;4950495;29;20456;-91
2022/10/15 12:48:05;;;;;;;1.10;0.82;;;;;;;;;;4918748;29;20071;-91
2022/10/15 12:50:36;;;;;;;1.02;0.65;;;;;;;;;;4950133;29;20038;-91
2022/10/15 12:53:24;;;;;;;0.80;0.75;;;;;;;;;;4950297;29;20035;-92
2022/10/15 12:56:11;;;;;;;0.70;0.70;;;;;;;;;;4934566;29;20032;-91
2022/10/15 12:58:51;;;;;;;0.95;0.77;;;;;;;;;;4920300;29;20036;-91
2022/10/15 13:01:16;;;;;;;1.55;0.77;;;;;;;;;;4934904;29;20036;-91
2022/10/15 13:03:42;;;;;;;1.25;0.75;;;;;;;;;;4935358;29;20418;-91
2022/10/15 13:06:19;;;;;;;1.48;0.70;;;;;;;;;;4934949;29;20403;-88
2022/10/15 13:08:56;;;;;;;0.95;0.70;;;;;;;;;;4934862;29;20035;-89
2022/10/15 13:11:29;;;;;;;1.02;0.70;;;;;;;;;;4934642;29;20031;-89
2022/10/15 13:14:36;;;;;;;0.68;0.68;;;;;;;;;;4936327;29;20043;-90
2022/10/15 13:17:05;;;;;;;1.40;0.85;;;;;;;;;;4950114;29;20417;-88
2022/10/15 13:19:38;;;;;;;1.15;0.77;;;;;;;;;;4936717;29;20043;-89
2022/10/15 13:22:06;;;;;;;0.98;0.80;;;;;;;;;;4936112;29;20043;-89
2022/10/15 13:24:42;;;;;;;2.55;0.77;;;;;;;;;;4935721;29;20032;-88
2022/10/15 13:27:20;;;;;;;0.90;0.80;;;;;;;;;;4920906;29;20043;-88
2022/10/15 13:30:01;;;;;;;1.08;0.80;;;;;;;;;;4937729;29;20047;-88
2022/10/15 13:32:30;;;;;;;0.95;0.70;;;;;;;;;;4936995;29;20496;-90
2022/10/15 13:34:56;;;;;;;3.67;0.90;;;;;;;;;;4939837;29;20030;-89
2022/10/15 13:37:34;;;;;;;1.02;0.82;;;;;;;;;;4935597;29;20035;-88
2022/10/15 13:40:02;;;;;;;0.70;0.70;;;;;;;;;;4950740;29;20036;-88
2022/10/15 13:42:28;;;;;;;1.10;0.70;;;;;;;;;;4934631;29;20107;-89
2022/10/15 13:45:03;;;;;;;3.60;0.50;;;;;;;;;;4935603;29;20473;-88
2022/10/15 13:47:29;;;;;;;0.85;0.50;;;;;;;;;;4935583;29;20027;-89
2022/10/15 13:50:28;;;;;;;2.60;0.52;;;;;;;;;;4934149;29;20457;-89
2022/10/15 13:53:03;;;;;;;3.28;0.60;;;;;;;;;;4935875;29;20173;-88
2022/10/15 13:55:35;;;;;;;1.08;0.50;;;;;;;;;;4935352;29;20389;-88
2022/10/15 13:58:14;;;;;;;2.53;0.60;;;;;;;;;;4950002;29;20066;-88
2022/10/15 14:00:40;;;;;;;0.52;0.40;;;;;;;;;;4933989;29;20048;-88
2022/10/15 14:03:17;;;;;;;2.20;0.50;;;;;;;;;;4918167;29;20043;-89
2022/10/15 14:05:45;;;;;;;1.02;0.57;;;;;;;;;;4935320;29;20062;-88
2022/10/15 14:08:26;;;;;;;1.00;0.80;;;;;;;;;;4933885;29;20034;-88
2022/10/15 14:10:56;;;;;;;1.20;0.80;;;;;;;;;;4934979;29;20119;-89
2022/10/15 14:13:21;;;;;;;7.55;4.32;;;;;;;;;;4949597;29;20083;-88
2022/10/15 14:15:56;;;;;;;2.38;1.50;;;;;;;;;;4933738;29;20032;-88
2022/10/15 14:18:30;;;;;;;8.80;3.20;;;;;;;;;;4935539;29;20036;-88
2022/10/15 14:20:55;;;;;;;2.60;1.20;;;;;;;;;;4949720;29;20040;-89
2022/10/15 14:23:24;;;;;;;2.85;1.10;;;;;;;;;;4937496;29;20043;-88
2022/10/15 14:25:58;;;;;;;1.40;1.00;;;;;;;;;;4938446;29;20503;-91
2022/10/15 14:28:26;;;;;;;1.45;0.90;;;;;;;;;;4938582;29;20039;-88
2022/10/15 14:30:52;;;;;;;1.77;1.40;;;;;;;;;;4936564;29;20453;-89
2022/10/15 14:33:36;;;;;;;1.30;0.95;;;;;;;;;;4952807;29;20031;-89
2022/10/15 14:36:16;;;;;;;3.78;1.60;;;;;;;;;;4936830;29;20066;-89
2022/10/15 14:38:42;;;;;;;2.95;1.60;;;;;;;;;;4936769;29;20094;-86
2022/10/15 14:41:28;;;;;;;2.42;1.50;;;;;;;;;;4920471;29;20484;-89
2022/10/15 14:44:02;;;;;;;6.20;1.20;;;;;;;;;;4937704;29;20042;-87
2022/10/15 14:46:35;;;;;;;1.10;1.00;;;;;;;;;;4920750;29;20035;-89
2022/10/15 14:49:01;;;;;;;2.65;1.23;;;;;;;;;;4936759;29;20144;-89
2022/10/15 14:51:27;;;;;;;3.03;1.20;;;;;;;;;;4936381;29;20123;-88
2022/10/15 14:53:53;;;;;;;4.72;1.70;;;;;;;;;;4936928;29;20572;-89
2022/10/15 14:56:23;;;;;;;2.70;1.40;;;;;;;;;;4953196;29;20126;-87
2022/10/15 14:58:55;;;;;;;2.80;1.42;;;;;;;;;;4939618;29;20043;-89
2022/10/15 15:01:22;;;;;;;2.47;1.50;;;;;;;;;;4957568;29;20032;-89
2022/10/15 15:03:53;;;;;;;4.47;1.30;;;;;;;;;;4937510;29;20044;-89
2022/10/15 15:06:19;;;;;;;1.50;1.10;;;;;;;;;;4937521;29;20077;-90
2022/10/15 15:08:44;;;;;;;2.35;1.30;;;;;;;;;;4937530;29;20496;-89
2022/10/15 15:11:13;;;;;;;3.55;1.40;;;;;;;;;;4953499;29;20039;-87
2022/10/15 15:13:41;;;;;;;1.20;1.08;;;;;;;;;;4937784;29;20044;-88